sensor_id;sensor_type;location;lat;lon;timestamp;P1;durP1;ratioP1;P2;durP2;ratioP2
17369;SDS011;8802;52.402;4.920;2023-08-06T00:00:56;10.02;;;8.85;;
17369;SDS011;8802;52.402;4.920;2023-08-06T00:03:23;8.77;;;8.05;;
17369;SDS011;8802;52.402;4.920;2023-08-06T00:05:50;10.32;;;9.32;;
17369;SDS011;8802;52.402;4.920;2023-08-06T00:08:16;10.32;;;9.02;;
17369;SDS011;8802;52.402;4.920;2023-08-06T00:10:46;8.93;;;8.23;;
17369;SDS011;8802;52.402;4.920;2023-08-06T00:13:14;11.25;;;10.25;;
17369;SDS011;8802;52.402;4.920;2023-08-06T00:15:41;11.48;;;10.38;;
17369;SDS011;8802;52.402;4.920;2023-08-06T00:18:08;10.93;;;10.02;;
17369;SDS011;8802;52.402;4.920;2023-08-06T00:20:35;11.45;;;10.45;;
17369;SDS011;8802;52.402;4.920;2023-08-06T00:23:04;11.50;;;10.50;;
17369;SDS011;8802;52.402;4.920;2023-08-06T00:25:31;11.80;;;10.80;;
17369;SDS011;8802;52.402;4.920;2023-08-06T00:27:59;11.23;;;10.30;;
17369;SDS011;8802;52.402;4.920;2023-08-06T00:30:26;12.32;;;11.23;;
17369;SDS011;8802;52.402;4.920;2023-08-06T00:32:53;12.10;;;11.10;;
17369;SDS011;8802;52.402;4.920;2023-08-06T00:35:20;11.55;;;10.45;;
17369;SDS011;8802;52.402;4.920;2023-08-06T00:37:47;12.90;;;11.77;;
17369;SDS011;8802;52.402;4.920;2023-08-06T00:40:14;14.35;;;13.05;;
17369;SDS011;8802;52.402;4.920;2023-08-06T00:42:41;13.88;;;12.57;;
17369;SDS011;8802;52.402;4.920;2023-08-06T00:45:11;12.88;;;11.77;;
17369;SDS011;8802;52.402;4.920;2023-08-06T00:47:38;12.35;;;11.23;;
17369;SDS011;8802;52.402;4.920;2023-08-06T00:50:06;10.75;;;9.82;;
17369;SDS011;8802;52.402;4.920;2023-08-06T00:52:34;10.32;;;9.43;;
17369;SDS011;8802;52.402;4.920;2023-08-06T00:55:02;10.43;;;9.55;;
17369;SDS011;8802;52.402;4.920;2023-08-06T00:57:29;10.50;;;9.60;;
17369;SDS011;8802;52.402;4.920;2023-08-06T00:59:56;9.82;;;9.02;;
17369;SDS011;8802;52.402;4.920;2023-08-06T01:02:24;11.77;;;10.52;;
17369;SDS011;8802;52.402;4.920;2023-08-06T01:04:51;10.13;;;9.32;;
17369;SDS011;8802;52.402;4.920;2023-08-06T01:07:20;11.90;;;10.80;;
17369;SDS011;8802;52.402;4.920;2023-08-06T01:09:57;10.70;;;9.80;;
17369;SDS011;8802;52.402;4.920;2023-08-06T01:12:38;10.23;;;9.27;;
17369;SDS011;8802;52.402;4.920;2023-08-06T01:15:11;9.85;;;9.05;;
17369;SDS011;8802;52.402;4.920;2023-08-06T01:17:44;10.57;;;9.68;;
17369;SDS011;8802;52.402;4.920;2023-08-06T01:20:11;9.80;;;9.00;;
17369;SDS011;8802;52.402;4.920;2023-08-06T01:22:39;10.60;;;9.18;;
17369;SDS011;8802;52.402;4.920;2023-08-06T01:25:07;10.02;;;9.10;;
17369;SDS011;8802;52.402;4.920;2023-08-06T01:27:36;9.13;;;8.32;;
17369;SDS011;8802;52.402;4.920;2023-08-06T01:30:11;8.68;;;7.88;;
17369;SDS011;8802;52.402;4.920;2023-08-06T01:32:42;8.68;;;7.88;;
17369;SDS011;8802;52.402;4.920;2023-08-06T01:35:11;8.65;;;8.05;;
17369;SDS011;8802;52.402;4.920;2023-08-06T01:37:42;9.82;;;9.02;;
17369;SDS011;8802;52.402;4.920;2023-08-06T01:40:10;9.82;;;8.98;;
17369;SDS011;8802;52.402;4.920;2023-08-06T01:42:38;10.95;;;9.95;;
17369;SDS011;8802;52.402;4.920;2023-08-06T01:45:05;9.55;;;8.60;;
17369;SDS011;8802;52.402;4.920;2023-08-06T01:47:33;10.65;;;9.75;;
17369;SDS011;8802;52.402;4.920;2023-08-06T01:50:00;10.98;;;9.93;;
17369;SDS011;8802;52.402;4.920;2023-08-06T01:52:27;9.38;;;8.68;;
17369;SDS011;8802;52.402;4.920;2023-08-06T01:54:55;8.07;;;7.43;;
17369;SDS011;8802;52.402;4.920;2023-08-06T01:57:22;8.05;;;7.35;;
17369;SDS011;8802;52.402;4.920;2023-08-06T01:59:49;8.15;;;7.45;;
17369;SDS011;8802;52.402;4.920;2023-08-06T02:02:16;9.15;;;8.35;;
17369;SDS011;8802;52.402;4.920;2023-08-06T02:04:43;8.32;;;7.53;;
17369;SDS011;8802;52.402;4.920;2023-08-06T02:07:10;7.55;;;6.95;;
17369;SDS011;8802;52.402;4.920;2023-08-06T02:09:37;8.48;;;6.68;;
17369;SDS011;8802;52.402;4.920;2023-08-06T02:12:06;7.30;;;6.70;;
17369;SDS011;8802;52.402;4.920;2023-08-06T02:14:34;7.50;;;6.80;;
17369;SDS011;8802;52.402;4.920;2023-08-06T02:17:01;7.13;;;6.43;;
17369;SDS011;8802;52.402;4.920;2023-08-06T02:19:28;6.63;;;6.13;;
17369;SDS011;8802;52.402;4.920;2023-08-06T02:21:55;8.25;;;7.18;;
17369;SDS011;8802;52.402;4.920;2023-08-06T02:24:22;7.95;;;7.25;;
17369;SDS011;8802;52.402;4.920;2023-08-06T02:26:48;7.95;;;7.35;;
17369;SDS011;8802;52.402;4.920;2023-08-06T02:29:17;7.35;;;6.65;;
17369;SDS011;8802;52.402;4.920;2023-08-06T02:31:44;7.05;;;6.28;;
17369;SDS011;8802;52.402;4.920;2023-08-06T02:34:11;6.78;;;6.18;;
17369;SDS011;8802;52.402;4.920;2023-08-06T02:36:38;6.35;;;5.85;;
17369;SDS011;8802;52.402;4.920;2023-08-06T02:39:05;5.95;;;5.47;;
17369;SDS011;8802;52.402;4.920;2023-08-06T02:41:32;5.65;;;5.18;;
17369;SDS011;8802;52.402;4.920;2023-08-06T02:43:59;5.53;;;4.53;;
17369;SDS011;8802;52.402;4.920;2023-08-06T02:46:27;4.80;;;4.40;;
17369;SDS011;8802;52.402;4.920;2023-08-06T02:48:54;4.20;;;3.90;;
17369;SDS011;8802;52.402;4.920;2023-08-06T02:51:21;3.97;;;3.67;;
17369;SDS011;8802;52.402;4.920;2023-08-06T02:53:48;2.95;;;2.72;;
17369;SDS011;8802;52.402;4.920;2023-08-06T02:56:15;2.45;;;2.25;;
17369;SDS011;8802;52.402;4.920;2023-08-06T02:58:42;2.33;;;1.80;;
17369;SDS011;8802;52.402;4.920;2023-08-06T03:01:09;2.10;;;1.90;;
17369;SDS011;8802;52.402;4.920;2023-08-06T03:03:37;3.67;;;1.73;;
17369;SDS011;8802;52.402;4.920;2023-08-06T03:06:04;4.13;;;1.65;;
17369;SDS011;8802;52.402;4.920;2023-08-06T03:08:31;1.55;;;1.30;;
17369;SDS011;8802;52.402;4.920;2023-08-06T03:10:58;1.30;;;1.20;;
17369;SDS011;8802;52.402;4.920;2023-08-06T03:13:25;5.30;;;1.55;;
17369;SDS011;8802;52.402;4.920;2023-08-06T03:15:53;2.53;;;1.63;;
17369;SDS011;8802;52.402;4.920;2023-08-06T03:18:20;1.85;;;1.50;;
17369;SDS011;8802;52.402;4.920;2023-08-06T03:20:48;2.63;;;1.48;;
17369;SDS011;8802;52.402;4.920;2023-08-06T03:23:15;1.80;;;1.70;;
17369;SDS011;8802;52.402;4.920;2023-08-06T03:25:42;2.10;;;1.90;;
17369;SDS011;8802;52.402;4.920;2023-08-06T03:28:09;2.40;;;1.95;;
17369;SDS011;8802;52.402;4.920;2023-08-06T03:30:37;3.28;;;1.85;;
17369;SDS011;8802;52.402;4.920;2023-08-06T03:33:04;2.38;;;1.80;;
17369;SDS011;8802;52.402;4.920;2023-08-06T03:35:31;3.50;;;1.90;;
17369;SDS011;8802;52.402;4.920;2023-08-06T03:37:59;2.63;;;2.42;;
17369;SDS011;8802;52.402;4.920;2023-08-06T03:40:26;2.47;;;1.88;;
17369;SDS011;8802;52.402;4.920;2023-08-06T03:42:53;1.90;;;1.80;;
17369;SDS011;8802;52.402;4.920;2023-08-06T03:45:19;2.40;;;2.17;;
17369;SDS011;8802;52.402;4.920;2023-08-06T03:47:46;2.45;;;2.25;;
17369;SDS011;8802;52.402;4.920;2023-08-06T03:50:13;3.38;;;2.25;;
17369;SDS011;8802;52.402;4.920;2023-08-06T03:52:40;2.38;;;2.17;;
17369;SDS011;8802;52.402;4.920;2023-08-06T03:55:09;4.28;;;2.45;;
17369;SDS011;8802;52.402;4.920;2023-08-06T03:57:35;4.30;;;2.53;;
17369;SDS011;8802;52.402;4.920;2023-08-06T04:00:02;4.70;;;2.00;;
17369;SDS011;8802;52.402;4.920;2023-08-06T04:02:30;2.30;;;2.10;;
17369;SDS011;8802;52.402;4.920;2023-08-06T04:04:57;3.15;;;2.10;;
17369;SDS011;8802;52.402;4.920;2023-08-06T04:07:24;3.05;;;2.83;;
17369;SDS011;8802;52.402;4.920;2023-08-06T04:09:54;4.97;;;2.70;;
17369;SDS011;8802;52.402;4.920;2023-08-06T04:12:24;4.15;;;2.75;;
17369;SDS011;8802;52.402;4.920;2023-08-06T04:14:51;3.17;;;2.97;;
17369;SDS011;8802;52.402;4.920;2023-08-06T04:17:18;4.20;;;2.80;;
17369;SDS011;8802;52.402;4.920;2023-08-06T04:19:46;3.80;;;3.40;;
17369;SDS011;8802;52.402;4.920;2023-08-06T04:22:13;4.00;;;3.17;;
17369;SDS011;8802;52.402;4.920;2023-08-06T04:24:42;4.38;;;4.00;;
17369;SDS011;8802;52.402;4.920;2023-08-06T04:27:09;5.80;;;4.38;;
17369;SDS011;8802;52.402;4.920;2023-08-06T04:29:38;4.10;;;3.80;;
17369;SDS011;8802;52.402;4.920;2023-08-06T04:32:06;4.40;;;4.10;;
17369;SDS011;8802;52.402;4.920;2023-08-06T04:34:34;3.75;;;3.45;;
17369;SDS011;8802;52.402;4.920;2023-08-06T04:37:03;3.92;;;2.92;;
17369;SDS011;8802;52.402;4.920;2023-08-06T04:39:29;4.60;;;3.30;;
17369;SDS011;8802;52.402;4.920;2023-08-06T04:41:56;2.95;;;2.75;;
17369;SDS011;8802;52.402;4.920;2023-08-06T04:44:23;2.20;;;2.10;;
17369;SDS011;8802;52.402;4.920;2023-08-06T04:46:51;2.22;;;2.13;;
17369;SDS011;8802;52.402;4.920;2023-08-06T04:49:19;2.50;;;2.25;;
17369;SDS011;8802;52.402;4.920;2023-08-06T04:51:47;2.70;;;2.05;;
17369;SDS011;8802;52.402;4.920;2023-08-06T04:54:14;2.75;;;2.55;;
17369;SDS011;8802;52.402;4.920;2023-08-06T04:56:41;3.70;;;3.08;;
17369;SDS011;8802;52.402;4.920;2023-08-06T04:59:08;3.33;;;3.13;;
17369;SDS011;8802;52.402;4.920;2023-08-06T05:01:35;3.40;;;3.13;;
17369;SDS011;8802;52.402;4.920;2023-08-06T05:04:03;4.05;;;3.60;;
17369;SDS011;8802;52.402;4.920;2023-08-06T05:06:30;3.88;;;3.55;;
17369;SDS011;8802;52.402;4.920;2023-08-06T05:08:57;5.03;;;4.63;;
17369;SDS011;8802;52.402;4.920;2023-08-06T05:11:24;4.10;;;3.80;;
17369;SDS011;8802;52.402;4.920;2023-08-06T05:13:51;5.22;;;4.82;;
17369;SDS011;8802;52.402;4.920;2023-08-06T05:16:17;4.93;;;4.53;;
17369;SDS011;8802;52.402;4.920;2023-08-06T05:18:44;4.55;;;4.25;;
17369;SDS011;8802;52.402;4.920;2023-08-06T05:21:13;5.65;;;5.15;;
17369;SDS011;8802;52.402;4.920;2023-08-06T05:23:41;6.13;;;5.50;;
17369;SDS011;8802;52.402;4.920;2023-08-06T05:26:09;5.20;;;4.57;;
17369;SDS011;8802;52.402;4.920;2023-08-06T05:28:35;6.38;;;5.75;;
17369;SDS011;8802;52.402;4.920;2023-08-06T05:31:03;5.65;;;5.15;;
17369;SDS011;8802;52.402;4.920;2023-08-06T05:33:30;5.97;;;5.47;;
17369;SDS011;8802;52.402;4.920;2023-08-06T05:35:57;7.15;;;6.45;;
17369;SDS011;8802;52.402;4.920;2023-08-06T05:38:25;7.80;;;7.10;;
17369;SDS011;8802;52.402;4.920;2023-08-06T05:40:53;6.75;;;6.20;;
17369;SDS011;8802;52.402;4.920;2023-08-06T05:43:20;6.35;;;5.85;;
17369;SDS011;8802;52.402;4.920;2023-08-06T05:45:48;6.00;;;5.50;;
17369;SDS011;8802;52.402;4.920;2023-08-06T05:48:15;6.40;;;5.80;;
17369;SDS011;8802;52.402;4.920;2023-08-06T05:50:42;6.60;;;6.05;;
17369;SDS011;8802;52.402;4.920;2023-08-06T05:53:11;5.90;;;5.40;;
17369;SDS011;8802;52.402;4.920;2023-08-06T05:55:40;5.72;;;5.22;;
17369;SDS011;8802;52.402;4.920;2023-08-06T05:58:07;6.18;;;5.68;;
17369;SDS011;8802;52.402;4.920;2023-08-06T06:00:34;7.20;;;6.50;;
17369;SDS011;8802;52.402;4.920;2023-08-06T06:03:01;7.05;;;6.43;;
17369;SDS011;8802;52.402;4.920;2023-08-06T06:05:28;7.25;;;6.68;;
17369;SDS011;8802;52.402;4.920;2023-08-06T06:07:55;6.07;;;5.63;;
17369;SDS011;8802;52.402;4.920;2023-08-06T06:10:21;6.55;;;6.05;;
17369;SDS011;8802;52.402;4.920;2023-08-06T06:12:50;6.15;;;5.65;;
17369;SDS011;8802;52.402;4.920;2023-08-06T06:15:18;6.43;;;5.93;;
17369;SDS011;8802;52.402;4.920;2023-08-06T06:17:44;5.60;;;5.20;;
17369;SDS011;8802;52.402;4.920;2023-08-06T06:20:11;4.95;;;4.65;;
17369;SDS011;8802;52.402;4.920;2023-08-06T06:22:38;5.63;;;4.80;;
17369;SDS011;8802;52.402;4.920;2023-08-06T06:25:06;4.30;;;3.90;;
17369;SDS011;8802;52.402;4.920;2023-08-06T06:27:33;3.70;;;3.40;;
17369;SDS011;8802;52.402;4.920;2023-08-06T06:30:01;3.58;;;3.28;;
17369;SDS011;8802;52.402;4.920;2023-08-06T06:32:29;3.40;;;3.17;;
17369;SDS011;8802;52.402;4.920;2023-08-06T06:34:56;4.50;;;3.33;;
17369;SDS011;8802;52.402;4.920;2023-08-06T06:37:23;3.35;;;3.05;;
17369;SDS011;8802;52.402;4.920;2023-08-06T06:39:50;3.10;;;2.88;;
17369;SDS011;8802;52.402;4.920;2023-08-06T06:42:17;3.92;;;2.92;;
17369;SDS011;8802;52.402;4.920;2023-08-06T06:44:44;3.30;;;3.00;;
17369;SDS011;8802;52.402;4.920;2023-08-06T06:47:12;3.00;;;2.67;;
17369;SDS011;8802;52.402;4.920;2023-08-06T06:49:39;3.50;;;2.63;;
17369;SDS011;8802;52.402;4.920;2023-08-06T06:52:06;2.72;;;2.53;;
17369;SDS011;8802;52.402;4.920;2023-08-06T06:54:33;2.92;;;2.60;;
17369;SDS011;8802;52.402;4.920;2023-08-06T06:57:00;3.13;;;2.92;;
17369;SDS011;8802;52.402;4.920;2023-08-06T06:59:27;4.18;;;3.08;;
17369;SDS011;8802;52.402;4.920;2023-08-06T07:01:54;3.58;;;3.28;;
17369;SDS011;8802;52.402;4.920;2023-08-06T07:04:22;4.63;;;3.88;;
17369;SDS011;8802;52.402;4.920;2023-08-06T07:06:49;4.03;;;3.40;;
17369;SDS011;8802;52.402;4.920;2023-08-06T07:09:17;4.47;;;3.60;;
17369;SDS011;8802;52.402;4.920;2023-08-06T07:11:44;3.83;;;3.13;;
17369;SDS011;8802;52.402;4.920;2023-08-06T07:14:10;3.90;;;3.50;;
17369;SDS011;8802;52.402;4.920;2023-08-06T07:16:39;3.63;;;3.22;;
17369;SDS011;8802;52.402;4.920;2023-08-06T07:19:06;3.58;;;3.28;;
17369;SDS011;8802;52.402;4.920;2023-08-06T07:21:34;4.32;;;3.65;;
17369;SDS011;8802;52.402;4.920;2023-08-06T07:24:01;3.70;;;3.38;;
17369;SDS011;8802;52.402;4.920;2023-08-06T07:26:28;4.15;;;3.78;;
17369;SDS011;8802;52.402;4.920;2023-08-06T07:28:55;4.60;;;4.20;;
17369;SDS011;8802;52.402;4.920;2023-08-06T07:31:22;4.40;;;4.00;;
17369;SDS011;8802;52.402;4.920;2023-08-06T07:33:49;4.68;;;4.28;;
17369;SDS011;8802;52.402;4.920;2023-08-06T07:36:16;5.25;;;4.68;;
17369;SDS011;8802;52.402;4.920;2023-08-06T07:38:44;5.57;;;4.65;;
17369;SDS011;8802;52.402;4.920;2023-08-06T07:41:11;4.90;;;4.38;;
17369;SDS011;8802;52.402;4.920;2023-08-06T07:43:38;5.90;;;5.30;;
17369;SDS011;8802;52.402;4.920;2023-08-06T07:46:05;5.50;;;5.00;;
17369;SDS011;8802;52.402;4.920;2023-08-06T07:48:32;6.13;;;5.60;;
17369;SDS011;8802;52.402;4.920;2023-08-06T07:50:58;6.65;;;5.95;;
17369;SDS011;8802;52.402;4.920;2023-08-06T07:53:25;6.10;;;5.60;;
17369;SDS011;8802;52.402;4.920;2023-08-06T07:55:55;6.07;;;5.47;;
17369;SDS011;8802;52.402;4.920;2023-08-06T07:58:23;6.95;;;6.25;;
17369;SDS011;8802;52.402;4.920;2023-08-06T08:00:50;5.90;;;5.40;;
17369;SDS011;8802;52.402;4.920;2023-08-06T08:03:18;7.60;;;5.60;;
17369;SDS011;8802;52.402;4.920;2023-08-06T08:05:45;5.57;;;5.07;;
17369;SDS011;8802;52.402;4.920;2023-08-06T08:08:12;5.38;;;4.88;;
17369;SDS011;8802;52.402;4.920;2023-08-06T08:10:39;7.70;;;5.60;;
17369;SDS011;8802;52.402;4.920;2023-08-06T08:13:08;5.53;;;5.10;;
17369;SDS011;8802;52.402;4.920;2023-08-06T08:15:35;5.40;;;4.90;;
17369;SDS011;8802;52.402;4.920;2023-08-06T08:18:02;5.10;;;4.68;;
17369;SDS011;8802;52.402;4.920;2023-08-06T08:20:29;6.47;;;5.80;;
17369;SDS011;8802;52.402;4.920;2023-08-06T08:22:58;7.53;;;5.68;;
17369;SDS011;8802;52.402;4.920;2023-08-06T08:25:25;5.88;;;5.32;;
17369;SDS011;8802;52.402;4.920;2023-08-06T08:27:53;6.03;;;5.53;;
17369;SDS011;8802;52.402;4.920;2023-08-06T08:30:21;4.57;;;4.18;;
17369;SDS011;8802;52.402;4.920;2023-08-06T08:32:50;4.88;;;4.38;;
17369;SDS011;8802;52.402;4.920;2023-08-06T08:35:17;6.32;;;5.72;;
17369;SDS011;8802;52.402;4.920;2023-08-06T08:37:44;6.22;;;5.57;;
17369;SDS011;8802;52.402;4.920;2023-08-06T08:40:10;7.43;;;5.40;;
17369;SDS011;8802;52.402;4.920;2023-08-06T08:42:38;6.75;;;5.82;;
17369;SDS011;8802;52.402;4.920;2023-08-06T08:45:06;6.18;;;5.68;;
17369;SDS011;8802;52.402;4.920;2023-08-06T08:47:39;6.43;;;5.70;;
17369;SDS011;8802;52.402;4.920;2023-08-06T08:50:07;6.72;;;5.05;;
17369;SDS011;8802;52.402;4.920;2023-08-06T08:52:36;6.10;;;4.97;;
17369;SDS011;8802;52.402;4.920;2023-08-06T08:55:05;5.15;;;4.57;;
17369;SDS011;8802;52.402;4.920;2023-08-06T08:57:34;4.68;;;4.15;;
17369;SDS011;8802;52.402;4.920;2023-08-06T09:00:02;5.18;;;4.32;;
17369;SDS011;8802;52.402;4.920;2023-08-06T09:02:32;4.20;;;3.80;;
17369;SDS011;8802;52.402;4.920;2023-08-06T09:05:01;4.22;;;3.53;;
17369;SDS011;8802;52.402;4.920;2023-08-06T09:07:31;4.75;;;4.07;;
17369;SDS011;8802;52.402;4.920;2023-08-06T09:10:02;5.40;;;4.15;;
17369;SDS011;8802;52.402;4.920;2023-08-06T09:12:30;5.63;;;4.25;;
17369;SDS011;8802;52.402;4.920;2023-08-06T09:14:58;4.00;;;3.60;;
17369;SDS011;8802;52.402;4.920;2023-08-06T09:17:25;3.90;;;3.55;;
17369;SDS011;8802;52.402;4.920;2023-08-06T09:19:53;4.95;;;3.60;;
17369;SDS011;8802;52.402;4.920;2023-08-06T09:22:21;4.45;;;3.15;;
17369;SDS011;8802;52.402;4.920;2023-08-06T09:24:49;5.82;;;4.05;;
17369;SDS011;8802;52.402;4.920;2023-08-06T09:27:16;6.13;;;3.92;;
17369;SDS011;8802;52.402;4.920;2023-08-06T09:29:43;5.97;;;3.75;;
17369;SDS011;8802;52.402;4.920;2023-08-06T09:32:11;3.67;;;3.13;;
17369;SDS011;8802;52.402;4.920;2023-08-06T09:34:39;5.50;;;3.70;;
17369;SDS011;8802;52.402;4.920;2023-08-06T09:37:08;5.63;;;4.07;;
17369;SDS011;8802;52.402;4.920;2023-08-06T09:39:38;5.55;;;3.33;;
17369;SDS011;8802;52.402;4.920;2023-08-06T09:42:06;3.70;;;2.90;;
17369;SDS011;8802;52.402;4.920;2023-08-06T09:44:33;4.40;;;2.92;;
17369;SDS011;8802;52.402;4.920;2023-08-06T09:47:01;5.65;;;3.00;;
17369;SDS011;8802;52.402;4.920;2023-08-06T09:49:40;5.07;;;2.90;;
17369;SDS011;8802;52.402;4.920;2023-08-06T09:52:10;4.95;;;2.42;;
17369;SDS011;8802;52.402;4.920;2023-08-06T09:54:39;2.65;;;2.08;;
17369;SDS011;8802;52.402;4.920;2023-08-06T09:57:06;3.90;;;1.88;;
17369;SDS011;8802;52.402;4.920;2023-08-06T09:59:34;2.65;;;2.13;;
17369;SDS011;8802;52.402;4.920;2023-08-06T10:02:04;3.28;;;1.80;;
17369;SDS011;8802;52.402;4.920;2023-08-06T10:04:38;3.85;;;2.17;;
17369;SDS011;8802;52.402;4.920;2023-08-06T10:07:05;3.35;;;1.70;;
17369;SDS011;8802;52.402;4.920;2023-08-06T10:09:33;3.65;;;2.15;;
17369;SDS011;8802;52.402;4.920;2023-08-06T10:12:01;2.80;;;1.92;;
17369;SDS011;8802;52.402;4.920;2023-08-06T10:14:30;2.75;;;1.90;;
17369;SDS011;8802;52.402;4.920;2023-08-06T10:16:59;2.72;;;2.05;;
17369;SDS011;8802;52.402;4.920;2023-08-06T10:19:26;4.25;;;2.08;;
17369;SDS011;8802;52.402;4.920;2023-08-06T10:22:11;3.47;;;1.88;;
17369;SDS011;8802;52.402;4.920;2023-08-06T10:24:45;2.67;;;1.75;;
17369;SDS011;8802;52.402;4.920;2023-08-06T10:27:15;2.75;;;1.77;;
17369;SDS011;8802;52.402;4.920;2023-08-06T10:29:47;3.30;;;1.90;;
17369;SDS011;8802;52.402;4.920;2023-08-06T10:32:13;3.95;;;2.10;;
17369;SDS011;8802;52.402;4.920;2023-08-06T10:34:53;5.15;;;2.22;;
17369;SDS011;8802;52.402;4.920;2023-08-06T10:37:22;3.17;;;1.98;;
17369;SDS011;8802;52.402;4.920;2023-08-06T10:39:50;5.18;;;1.80;;
17369;SDS011;8802;52.402;4.920;2023-08-06T10:42:22;3.05;;;1.70;;
17369;SDS011;8802;52.402;4.920;2023-08-06T10:45:12;3.30;;;1.90;;
17369;SDS011;8802;52.402;4.920;2023-08-06T10:47:41;2.40;;;1.40;;
17369;SDS011;8802;52.402;4.920;2023-08-06T10:50:10;4.30;;;1.48;;
17369;SDS011;8802;52.402;4.920;2023-08-06T10:52:38;2.72;;;1.40;;
17369;SDS011;8802;52.402;4.920;2023-08-06T10:55:05;2.30;;;1.27;;
17369;SDS011;8802;52.402;4.920;2023-08-06T10:57:35;3.17;;;1.52;;
17369;SDS011;8802;52.402;4.920;2023-08-06T11:00:03;4.25;;;1.30;;
17369;SDS011;8802;52.402;4.920;2023-08-06T11:02:33;4.30;;;1.42;;
17369;SDS011;8802;52.402;4.920;2023-08-06T11:05:10;2.78;;;1.35;;
17369;SDS011;8802;52.402;4.920;2023-08-06T11:07:37;1.98;;;1.05;;
17369;SDS011;8802;52.402;4.920;2023-08-06T11:10:05;2.85;;;1.58;;
17369;SDS011;8802;52.402;4.920;2023-08-06T11:12:35;1.50;;;1.08;;
17369;SDS011;8802;52.402;4.920;2023-08-06T11:15:03;2.13;;;1.08;;
17369;SDS011;8802;52.402;4.920;2023-08-06T11:17:31;2.25;;;1.50;;
17369;SDS011;8802;52.402;4.920;2023-08-06T11:19:59;1.55;;;1.10;;
17369;SDS011;8802;52.402;4.920;2023-08-06T11:22:27;4.20;;;1.30;;
17369;SDS011;8802;52.402;4.920;2023-08-06T11:24:54;1.80;;;1.38;;
17369;SDS011;8802;52.402;4.920;2023-08-06T11:27:21;1.60;;;1.10;;
17369;SDS011;8802;52.402;4.920;2023-08-06T11:29:50;2.17;;;1.40;;
17369;SDS011;8802;52.402;4.920;2023-08-06T11:32:17;3.00;;;1.58;;
17369;SDS011;8802;52.402;4.920;2023-08-06T11:34:44;1.80;;;1.20;;
17369;SDS011;8802;52.402;4.920;2023-08-06T11:37:11;2.10;;;1.48;;
17369;SDS011;8802;52.402;4.920;2023-08-06T11:39:38;4.35;;;1.65;;
17369;SDS011;8802;52.402;4.920;2023-08-06T11:42:10;4.22;;;1.83;;
17369;SDS011;8802;52.402;4.920;2023-08-06T11:44:38;5.63;;;1.73;;
17369;SDS011;8802;52.402;4.920;2023-08-06T11:47:11;3.50;;;2.00;;
17369;SDS011;8802;52.402;4.920;2023-08-06T11:49:40;3.33;;;1.83;;
17369;SDS011;8802;52.402;4.920;2023-08-06T11:52:18;2.72;;;2.20;;
17369;SDS011;8802;52.402;4.920;2023-08-06T11:54:48;2.33;;;2.03;;
17369;SDS011;8802;52.402;4.920;2023-08-06T11:57:28;3.45;;;1.90;;
17369;SDS011;8802;52.402;4.920;2023-08-06T11:59:58;4.38;;;1.90;;
17369;SDS011;8802;52.402;4.920;2023-08-06T12:02:30;3.15;;;1.63;;
17369;SDS011;8802;52.402;4.920;2023-08-06T12:05:02;3.75;;;1.70;;
17369;SDS011;8802;52.402;4.920;2023-08-06T12:07:31;2.67;;;1.45;;
17369;SDS011;8802;52.402;4.920;2023-08-06T12:09:59;3.97;;;1.55;;
17369;SDS011;8802;52.402;4.920;2023-08-06T12:12:26;3.03;;;1.55;;
17369;SDS011;8802;52.402;4.920;2023-08-06T12:14:54;3.25;;;1.33;;
17369;SDS011;8802;52.402;4.920;2023-08-06T12:17:21;3.35;;;1.55;;
17369;SDS011;8802;52.402;4.920;2023-08-06T12:19:50;3.00;;;1.40;;
17369;SDS011;8802;52.402;4.920;2023-08-06T12:22:17;5.28;;;1.40;;
17369;SDS011;8802;52.402;4.920;2023-08-06T12:24:45;1.70;;;1.33;;
17369;SDS011;8802;52.402;4.920;2023-08-06T12:27:13;2.47;;;1.33;;
17369;SDS011;8802;52.402;4.920;2023-08-06T12:29:40;2.85;;;1.40;;
17369;SDS011;8802;52.402;4.920;2023-08-06T12:32:08;2.10;;;1.50;;
17369;SDS011;8802;52.402;4.920;2023-08-06T12:34:37;3.35;;;1.30;;
17369;SDS011;8802;52.402;4.920;2023-08-06T12:37:06;2.67;;;1.50;;
17369;SDS011;8802;52.402;4.920;2023-08-06T12:39:33;4.75;;;1.70;;
17369;SDS011;8802;52.402;4.920;2023-08-06T12:42:01;2.33;;;1.60;;
17369;SDS011;8802;52.402;4.920;2023-08-06T12:44:30;1.98;;;1.13;;
17369;SDS011;8802;52.402;4.920;2023-08-06T12:46:58;3.97;;;1.30;;
17369;SDS011;8802;52.402;4.920;2023-08-06T12:49:25;1.83;;;1.27;;
17369;SDS011;8802;52.402;4.920;2023-08-06T12:51:52;2.42;;;1.50;;
17369;SDS011;8802;52.402;4.920;2023-08-06T12:54:21;3.08;;;1.42;;
17369;SDS011;8802;52.402;4.920;2023-08-06T12:56:48;2.80;;;1.75;;
17369;SDS011;8802;52.402;4.920;2023-08-06T12:59:16;2.45;;;1.73;;
17369;SDS011;8802;52.402;4.920;2023-08-06T13:01:43;2.58;;;1.63;;
17369;SDS011;8802;52.402;4.920;2023-08-06T13:04:10;2.08;;;1.55;;
17369;SDS011;8802;52.402;4.920;2023-08-06T13:06:38;2.33;;;1.30;;
17369;SDS011;8802;52.402;4.920;2023-08-06T13:09:05;3.58;;;1.60;;
17369;SDS011;8802;52.402;4.920;2023-08-06T13:11:34;3.17;;;1.50;;
17369;SDS011;8802;52.402;4.920;2023-08-06T13:14:06;2.72;;;1.52;;
17369;SDS011;8802;52.402;4.920;2023-08-06T13:16:34;3.80;;;1.65;;
17369;SDS011;8802;52.402;4.920;2023-08-06T13:19:01;1.90;;;1.50;;
17369;SDS011;8802;52.402;4.920;2023-08-06T13:21:31;1.40;;;1.20;;
17369;SDS011;8802;52.402;4.920;2023-08-06T13:23:59;3.67;;;1.70;;
17369;SDS011;8802;52.402;4.920;2023-08-06T13:26:27;1.73;;;1.50;;
17369;SDS011;8802;52.402;4.920;2023-08-06T13:28:56;3.25;;;1.52;;
17369;SDS011;8802;52.402;4.920;2023-08-06T13:31:24;3.80;;;1.35;;
17369;SDS011;8802;52.402;4.920;2023-08-06T13:33:50;4.03;;;1.00;;
17369;SDS011;8802;52.402;4.920;2023-08-06T13:36:20;1.90;;;1.40;;
17369;SDS011;8802;52.402;4.920;2023-08-06T13:38:48;1.52;;;1.23;;
17369;SDS011;8802;52.402;4.920;2023-08-06T13:41:16;2.42;;;1.42;;
17369;SDS011;8802;52.402;4.920;2023-08-06T13:43:47;2.63;;;1.65;;
17369;SDS011;8802;52.402;4.920;2023-08-06T13:46:17;3.05;;;1.42;;
17369;SDS011;8802;52.402;4.920;2023-08-06T13:48:45;1.83;;;1.10;;
17369;SDS011;8802;52.402;4.920;2023-08-06T13:51:15;1.88;;;1.35;;
17369;SDS011;8802;52.402;4.920;2023-08-06T13:53:43;1.55;;;1.05;;
17369;SDS011;8802;52.402;4.920;2023-08-06T13:56:10;1.38;;;0.80;;
17369;SDS011;8802;52.402;4.920;2023-08-06T13:58:40;1.52;;;0.88;;
17369;SDS011;8802;52.402;4.920;2023-08-06T14:01:09;1.05;;;0.70;;
17369;SDS011;8802;52.402;4.920;2023-08-06T14:03:39;5.57;;;1.00;;
17369;SDS011;8802;52.402;4.920;2023-08-06T14:06:07;1.25;;;0.90;;
17369;SDS011;8802;52.402;4.920;2023-08-06T14:08:34;4.95;;;1.00;;
17369;SDS011;8802;52.402;4.920;2023-08-06T14:11:01;4.80;;;1.05;;
17369;SDS011;8802;52.402;4.920;2023-08-06T14:13:28;2.10;;;0.70;;
17369;SDS011;8802;52.402;4.920;2023-08-06T14:15:54;2.13;;;0.90;;
17369;SDS011;8802;52.402;4.920;2023-08-06T14:18:21;5.57;;;1.17;;
17369;SDS011;8802;52.402;4.920;2023-08-06T14:20:51;4.30;;;0.75;;
17369;SDS011;8802;52.402;4.920;2023-08-06T14:23:20;4.25;;;1.25;;
17369;SDS011;8802;52.402;4.920;2023-08-06T14:25:47;4.70;;;1.13;;
17369;SDS011;8802;52.402;4.920;2023-08-06T14:28:14;2.70;;;0.80;;
17369;SDS011;8802;52.402;4.920;2023-08-06T14:30:41;5.28;;;1.00;;
17369;SDS011;8802;52.402;4.920;2023-08-06T14:33:08;4.32;;;0.80;;
17369;SDS011;8802;52.402;4.920;2023-08-06T14:35:35;4.35;;;1.08;;
17369;SDS011;8802;52.402;4.920;2023-08-06T14:38:03;3.03;;;1.13;;
17369;SDS011;8802;52.402;4.920;2023-08-06T14:40:30;3.67;;;0.70;;
17369;SDS011;8802;52.402;4.920;2023-08-06T14:43:02;4.63;;;1.15;;
17369;SDS011;8802;52.402;4.920;2023-08-06T14:45:30;5.07;;;1.08;;
17369;SDS011;8802;52.402;4.920;2023-08-06T14:47:57;4.90;;;0.88;;
17369;SDS011;8802;52.402;4.920;2023-08-06T14:50:24;3.63;;;0.70;;
17369;SDS011;8802;52.402;4.920;2023-08-06T14:52:51;5.45;;;0.77;;
17369;SDS011;8802;52.402;4.920;2023-08-06T14:55:24;4.60;;;0.60;;
17369;SDS011;8802;52.402;4.920;2023-08-06T14:57:51;4.50;;;1.00;;
17369;SDS011;8802;52.402;4.920;2023-08-06T15:00:18;3.72;;;0.85;;
17369;SDS011;8802;52.402;4.920;2023-08-06T15:02:46;6.65;;;0.93;;
17369;SDS011;8802;52.402;4.920;2023-08-06T15:05:13;6.30;;;0.90;;